Time;durP1;ratioP1;P1;durP2;ratioP2;P2;SDS_P1;SDS_P2;PMS_P1;PMS_P2;Temp;Humidity;BMP_temperature;BMP_pressure;BME280_temperature;BME280_humidity;BME280_pressure;Samples;Min_cycle;Max_cycle;Signal;HPM_P1;HPM_P2
2021/09/12 00:01:26;;;;;;;;;;;19.80;88.30;;;;;;5010848;28;19909;-71
2021/09/12 00:04:30;;;;;;;;;;;19.80;88.20;;;;;;5011624;28;19968;-73
2021/09/12 00:07:33;;;;;;;;;;;19.80;88.40;;;;;;5011894;28;20272;-73
2021/09/12 00:10:38;;;;;;;;;;;19.80;88.80;;;;;;5011636;28;20323;-73
2021/09/12 00:13:42;;;;;;;;;;;19.70;88.80;;;;;;5011584;28;19909;-73
2021/09/12 00:16:46;;;;;;;;;;;19.70;88.40;;;;;;5011885;28;19917;-73
2021/09/12 00:19:51;;;;;;;;;;;19.80;88.10;;;;;;5011972;28;19910;-73
2021/09/12 00:22:54;;;;;;;;;;;19.80;89.30;;;;;;5010721;28;20379;-73
2021/09/12 00:25:58;;;;;;;;;;;19.90;90.20;;;;;;5011515;28;19924;-73
2021/09/12 00:29:03;;;;;;;;;;;19.90;87.80;;;;;;5011470;28;20272;-73
2021/09/12 00:32:07;;;;;;;;;;;19.80;86.40;;;;;;5010548;28;19932;-73
2021/09/12 00:35:11;;;;;;;;;;;19.80;88.60;;;;;;5011448;28;19913;-73
2021/09/12 00:38:15;;;;;;;;;;;19.70;88.80;;;;;;5011330;28;20345;-73
2021/09/12 00:41:19;;;;;;;;;;;19.60;91.60;;;;;;5010781;28;19916;-73
2021/09/12 00:44:24;;;;;;;;;;;19.50;92.10;;;;;;5011062;28;19918;-73
2021/09/12 00:47:28;;;;;;;;;;;19.50;91.10;;;;;;5011653;28;19913;-73
2021/09/12 00:50:32;;;;;;;;;;;19.40;91.20;;;;;;5011381;28;20357;-73
2021/09/12 00:53:37;;;;;;;;;;;19.30;91.70;;;;;;5010996;28;19909;-73
2021/09/12 00:56:41;;;;;;;;;;;19.40;92.10;;;;;;5011226;28;19909;-73
2021/09/12 00:59:48;;;;;;;;;;;19.30;92.40;;;;;;5011193;28;19917;-73
2021/09/12 01:02:52;;;;;;;;;;;19.20;92.10;;;;;;5010949;28;19909;-73
2021/09/12 01:05:55;;;;;;;;;;;19.10;93.30;;;;;;5014999;28;19913;-72
2021/09/12 01:09:00;;;;;;;;;;;19.00;93.40;;;;;;5015084;28;19913;-73
2021/09/12 01:12:05;;;;;;;;;;;18.90;92.20;;;;;;5014049;28;19921;-73
2021/09/12 01:15:09;;;;;;;;;;;18.90;92.20;;;;;;5014920;28;20467;-72
2021/09/12 01:18:12;;;;;;;;;;;18.90;92.40;;;;;;5014866;28;19910;-73
2021/09/12 01:21:18;;;;;;;;;;;18.90;91.90;;;;;;5014556;28;19909;-72
2021/09/12 01:24:23;;;;;;;;;;;18.90;91.90;;;;;;5014505;28;20360;-72
2021/09/12 01:27:27;;;;;;;;;;;18.80;92.40;;;;;;5014807;28;19913;-72
2021/09/12 01:30:31;;;;;;;;;;;18.80;92.80;;;;;;5014827;28;19916;-72
2021/09/12 01:33:35;;;;;;;;;;;18.70;92.50;;;;;;5014354;28;19914;-73
2021/09/12 01:36:39;;;;;;;;;;;18.70;92.30;;;;;;5014621;28;20248;-72
2021/09/12 01:39:43;;;;;;;;;;;18.60;92.30;;;;;;5014377;28;20352;-72
2021/09/12 01:42:47;;;;;;;;;;;18.60;92.30;;;;;;5013485;28;20260;-72
2021/09/12 01:45:51;;;;;;;;;;;18.50;92.50;;;;;;5014682;28;19913;-72
2021/09/12 01:48:56;;;;;;;;;;;18.50;92.60;;;;;;5014517;28;19937;-73
2021/09/12 01:52:00;;;;;;;;;;;18.50;92.70;;;;;;5014064;28;20352;-72
2021/09/12 01:55:04;;;;;;;;;;;18.40;93.20;;;;;;5014464;28;19913;-72
2021/09/12 01:58:08;;;;;;;;;;;18.40;93.80;;;;;;5014370;28;19909;-72
2021/09/12 02:01:12;;;;;;;;;;;18.40;94.00;;;;;;5013704;28;20349;-72
2021/09/12 02:04:16;;;;;;;;;;;18.30;94.20;;;;;;5013975;28;19909;-72
2021/09/12 02:07:20;;;;;;;;;;;18.20;94.70;;;;;;5014394;28;20348;-72
2021/09/12 02:10:26;;;;;;;;;;;18.20;95.40;;;;;;5014518;28;20271;-72
2021/09/12 02:13:30;;;;;;;;;;;18.20;95.80;;;;;;5013052;28;19920;-72
2021/09/12 02:16:34;;;;;;;;;;;18.20;96.00;;;;;;5013922;28;19909;-72
2021/09/12 02:19:38;;;;;;;;;;;18.10;96.30;;;;;;5014646;28;19909;-72
2021/09/12 02:22:42;;;;;;;;;;;18.00;96.90;;;;;;5012805;28;19910;-72
2021/09/12 02:25:47;;;;;;;;;;;18.00;97.10;;;;;;5013871;28;19914;-73
2021/09/12 02:28:51;;;;;;;;;;;17.90;97.80;;;;;;5013749;28;19916;-73
2021/09/12 02:31:56;;;;;;;;;;;17.80;98.60;;;;;;5013121;28;19909;-73
2021/09/12 02:35:00;;;;;;;;;;;17.60;99.90;;;;;;5013325;28;19913;-72
2021/09/12 02:38:04;;;;;;;;;;;17.60;99.90;;;;;;5013527;28;19913;-72
2021/09/12 02:41:08;;;;;;;;;;;17.50;99.90;;;;;;5012850;28;20292;-73
2021/09/12 02:44:12;;;;;;;;;;;17.50;99.90;;;;;;5012960;28;19913;-72
2021/09/12 02:47:16;;;;;;;;;;;17.50;99.90;;;;;;5012999;28;20348;-72
2021/09/12 02:50:20;;;;;;;;;;;17.50;99.90;;;;;;5013237;28;20267;-72
2021/09/12 02:53:23;;;;;;;;;;;17.40;99.90;;;;;;5013276;28;20649;-72
2021/09/12 02:56:27;;;;;;;;;;;17.40;99.90;;;;;;5013107;28;20375;-72
2021/09/12 02:59:32;;;;;;;;;;;17.30;99.90;;;;;;4993449;28;19909;-72
2021/09/12 03:02:36;;;;;;;;;;;17.30;99.90;;;;;;4992929;28;20265;-72
2021/09/12 03:05:39;;;;;;;;;;;17.20;99.90;;;;;;4993363;28;19913;-73
2021/09/12 03:08:43;;;;;;;;;;;17.10;99.90;;;;;;4993825;28;19913;-72
2021/09/12 03:11:51;;;;;;;;;;;17.10;99.90;;;;;;4992689;28;20264;-72
2021/09/12 03:14:55;;;;;;;;;;;17.10;99.90;;;;;;4993082;28;19913;-72
2021/09/12 03:17:58;;;;;;;;;;;17.00;99.90;;;;;;4993256;28;19909;-72
2021/09/12 03:21:02;;;;;;;;;;;17.00;99.90;;;;;;4992496;28;19910;-72
2021/09/12 03:24:09;;;;;;;;;;;17.10;99.90;;;;;;4992576;28;19913;-72
2021/09/12 03:27:12;;;;;;;;;;;17.00;99.90;;;;;;4992625;28;19929;-72
2021/09/12 03:30:16;;;;;;;;;;;16.90;99.90;;;;;;4992718;28;19909;-72
2021/09/12 03:33:20;;;;;;;;;;;17.00;99.90;;;;;;5012167;28;19909;-72
2021/09/12 03:36:25;;;;;;;;;;;16.90;99.90;;;;;;5012348;28;19913;-72
2021/09/12 03:39:29;;;;;;;;;;;17.00;99.90;;;;;;5012335;28;20344;-72
2021/09/12 03:42:33;;;;;;;;;;;17.00;99.90;;;;;;5011559;28;20261;-72
2021/09/12 03:45:38;;;;;;;;;;;17.00;99.90;;;;;;5011858;28;19920;-72
2021/09/12 03:48:41;;;;;;;;;;;17.00;99.90;;;;;;5012249;28;19917;-72
2021/09/12 03:51:45;;;;;;;;;;;17.00;99.90;;;;;;5011440;28;19910;-72
2021/09/12 03:54:49;;;;;;;;;;;17.10;99.90;;;;;;5011557;28;19906;-72
2021/09/12 03:57:54;;;;;;;;;;;17.00;99.90;;;;;;5011945;28;19909;-72
2021/09/12 04:00:58;;;;;;;;;;;16.90;99.90;;;;;;5011428;28;19913;-72
2021/09/12 04:04:02;;;;;;;;;;;16.90;99.90;;;;;;5011467;28;19910;-72
2021/09/12 04:07:06;;;;;;;;;;;16.90;99.90;;;;;;5011418;28;19917;-72
2021/09/12 04:10:11;;;;;;;;;;;16.90;99.90;;;;;;5011466;28;20340;-72
2021/09/12 04:13:14;;;;;;;;;;;16.90;99.90;;;;;;5011756;28;19909;-72
2021/09/12 04:16:18;;;;;;;;;;;16.80;99.90;;;;;;5011562;28;19913;-72
2021/09/12 04:19:22;;;;;;;;;;;16.80;99.90;;;;;;5011781;28;19913;-72
2021/09/12 04:22:26;;;;;;;;;;;16.80;99.90;;;;;;5010982;28;20300;-72
2021/09/12 04:25:31;;;;;;;;;;;16.80;99.90;;;;;;5011316;28;19913;-72
2021/09/12 04:28:35;;;;;;;;;;;16.80;99.90;;;;;;5011408;28;19910;-72
2021/09/12 04:31:38;;;;;;;;;;;16.80;99.90;;;;;;5010504;28;19905;-72
2021/09/12 04:34:47;;;;;;;;;;;16.70;99.90;;;;;;5011150;28;19910;-72
2021/09/12 04:37:51;;;;;;;;;;;16.60;99.90;;;;;;5012414;28;20264;-72
2021/09/12 04:40:55;;;;;;;;;;;16.60;99.90;;;;;;5014963;28;19909;-72
2021/09/12 04:44:00;;;;;;;;;;;16.50;99.90;;;;;;5015892;28;19909;-72
2021/09/12 04:47:04;;;;;;;;;;;16.40;99.90;;;;;;5014199;28;19913;-72
2021/09/12 04:50:08;;;;;;;;;;;16.40;99.90;;;;;;5015520;28;19917;-72
2021/09/12 04:53:12;;;;;;;;;;;16.30;99.90;;;;;;5015217;28;19909;-72
2021/09/12 04:56:16;;;;;;;;;;;16.20;99.90;;;;;;5015193;28;19917;-72
2021/09/12 04:59:20;;;;;;;;;;;16.20;99.90;;;;;;5015490;28;19909;-72
2021/09/12 05:02:24;;;;;;;;;;;16.20;99.90;;;;;;5014526;28;20341;-72
2021/09/12 05:05:28;;;;;;;;;;;16.20;99.90;;;;;;5014910;28;19914;-72
2021/09/12 05:08:32;;;;;;;;;;;16.10;99.90;;;;;;5015228;28;19909;-72
2021/09/12 05:11:36;;;;;;;;;;;16.10;99.90;;;;;;5014370;28;19913;-72
2021/09/12 05:14:40;;;;;;;;;;;15.80;99.90;;;;;;5015061;28;19909;-72
2021/09/12 05:17:44;;;;;;;;;;;15.80;99.90;;;;;;5014660;28;19910;-72
2021/09/12 05:20:48;;;;;;;;;;;15.80;99.90;;;;;;5014276;28;19909;-72
2021/09/12 05:23:52;;;;;;;;;;;15.80;99.90;;;;;;5014574;28;19909;-72
2021/09/12 05:26:56;;;;;;;;;;;15.80;99.90;;;;;;5014109;28;19917;-73
2021/09/12 05:30:00;;;;;;;;;;;15.90;99.90;;;;;;5014271;28;19917;-72
2021/09/12 05:33:04;;;;;;;;;;;16.00;99.90;;;;;;5014100;28;19910;-72
2021/09/12 05:36:08;;;;;;;;;;;16.10;99.90;;;;;;5025057;28;19917;-72
2021/09/12 05:39:12;;;;;;;;;;;16.20;99.90;;;;;;5014469;28;19909;-72
2021/09/12 05:42:15;;;;;;;;;;;17.60;99.90;;;;;;5013271;28;19925;-72
2021/09/12 05:45:19;;;;;;;;;;;20.40;99.90;;;;;;5013893;28;19913;-72
2021/09/12 05:48:23;;;;;;;;;;;22.90;99.90;;;;;;5013713;28;19917;-73
2021/09/12 05:51:28;;;;;;;;;;;24.70;96.60;;;;;;5013384;28;19917;-73
2021/09/12 05:54:32;;;;;;;;;;;26.20;93.60;;;;;;5013771;28;19920;-72
2021/09/12 05:57:37;;;;;;;;;;;27.50;91.20;;;;;;5013683;28;19909;-73
2021/09/12 06:00:42;;;;;;;;;;;28.10;88.30;;;;;;5013877;28;20287;-73
2021/09/12 06:03:46;;;;;;;;;;;29.00;85.20;;;;;;5015561;28;19898;-73
2021/09/12 06:06:50;;;;;;;;;;;29.50;81.10;;;;;;5013384;28;19924;-73
2021/09/12 06:09:54;;;;;;;;;;;30.20;78.90;;;;;;5013846;28;19913;-71
2021/09/12 06:12:58;;;;;;;;;;;31.00;77.20;;;;;;5013288;28;19928;-71
2021/09/12 06:16:02;;;;;;;;;;;31.20;75.50;;;;;;5013567;28;20108;-71
2021/09/12 06:19:07;;;;;;;;;;;31.50;74.60;;;;;;5013619;28;19909;-71
2021/09/12 06:22:12;;;;;;;;;;;31.90;72.70;;;;;;5012735;28;19921;-71
2021/09/12 06:25:16;;;;;;;;;;;32.60;71.10;;;;;;5013804;28;20387;-71
2021/09/12 06:28:20;;;;;;;;;;;32.70;69.90;;;;;;5013492;28;19909;-71
2021/09/12 06:31:25;;;;;;;;;;;33.00;69.40;;;;;;5012927;28;20255;-71
2021/09/12 06:34:29;;;;;;;;;;;33.20;68.80;;;;;;5013471;28;19909;-71
2021/09/12 06:37:34;;;;;;;;;;;33.30;67.50;;;;;;5012980;28;19909;-71
2021/09/12 06:40:38;;;;;;;;;;;33.20;67.00;;;;;;5013226;28;20284;-71
2021/09/12 06:43:42;;;;;;;;;;;33.40;66.40;;;;;;5013158;28;19909;-72
2021/09/12 06:46:46;;;;;;;;;;;34.00;65.60;;;;;;5012756;28;20544;-72
2021/09/12 06:49:50;;;;;;;;;;;34.50;64.80;;;;;;5013278;28;19917;-71
2021/09/12 06:52:55;;;;;;;;;;;34.70;64.10;;;;;;5012331;28;19910;-71
2021/09/12 06:55:35;;;;;;;;;;;34.20;63.30;;;;;;5107813;27;19990;-54
2021/09/12 06:58:39;;;;;;;;;;;32.50;64.60;;;;;;5107877;28;19912;-53
2021/09/12 07:01:44;;;;;;;;;;;31.40;67.50;;;;;;5104800;28;19927;-53
2021/09/12 07:04:48;;;;;;;;;;;31.70;66.40;;;;;;5099561;28;19919;-51
2021/09/12 07:07:52;;;;;;;;;;;30.40;68.20;;;;;;5107187;28;20286;-50
2021/09/12 07:10:56;;;;;;;;;;;30.70;66.90;;;;;;5095550;28;20401;-55
2021/09/12 07:14:00;;;;;;;;;;;31.60;66.80;;;;;;5086688;28;20293;-51
2021/09/12 07:17:04;;;;;;;;;;;31.20;66.70;;;;;;5086809;28;19919;-51
2021/09/12 07:20:08;;;;;;;;;;;31.90;66.70;;;;;;5087130;28;19970;-54
2021/09/12 07:23:12;;;;;;;;;;;30.90;67.20;;;;;;5086958;28;20282;-50
2021/09/12 07:26:16;;;;;;;;;;;29.40;70.00;;;;;;5086437;28;19919;-53
2021/09/12 07:29:20;;;;;;;;;;;30.40;69.40;;;;;;5086428;28;19923;-51
2021/09/12 07:32:24;;;;;;;;;;;31.60;67.70;;;;;;5088802;28;19923;-51
2021/09/12 07:35:28;;;;;;;;;;;29.80;69.70;;;;;;5097289;28;19924;-50
2021/09/12 07:38:32;;;;;;;;;;;29.40;70.70;;;;;;5105444;28;19927;-52
2021/09/12 07:41:36;;;;;;;;;;;28.10;72.00;;;;;;5088688;28;19923;-50
2021/09/12 07:44:40;;;;;;;;;;;29.10;72.60;;;;;;5104070;28;19919;-53
2021/09/12 07:47:44;;;;;;;;;;;30.80;70.00;;;;;;5105994;28;19967;-50
2021/09/12 07:50:48;;;;;;;;;;;32.20;68.20;;;;;;5090063;28;19920;-59
2021/09/12 07:53:53;;;;;;;;;;;31.40;68.30;;;;;;5086149;28;19931;-53
2021/09/12 07:56:57;;;;;;;;;;;32.20;67.60;;;;;;5086318;28;19931;-57
2021/09/12 08:00:02;;;;;;;;;;;32.20;67.20;;;;;;5086035;28;20421;-53
2021/09/12 08:03:15;;;;;;;;;;;32.40;66.90;;;;;;5086822;28;19938;-54
2021/09/12 08:06:22;;;;;;;;;;;32.60;66.70;;;;;;5076635;28;19923;-53
2021/09/12 08:09:26;;;;;;;;;;;32.20;65.30;;;;;;5072744;28;19919;-54
2021/09/12 08:12:30;;;;;;;;;;;34.60;64.40;;;;;;5072925;28;20401;-55
2021/09/12 08:15:34;;;;;;;;;;;34.00;64.00;;;;;;5072863;28;19928;-54
2021/09/12 08:18:38;;;;;;;;;;;34.40;63.00;;;;;;5072574;28;19935;-54
2021/09/12 08:21:42;;;;;;;;;;;34.10;62.60;;;;;;5071815;28;19920;-54
2021/09/12 08:24:46;;;;;;;;;;;34.50;62.40;;;;;;5091305;28;19919;-53
2021/09/12 08:27:51;;;;;;;;;;;34.60;62.40;;;;;;5092370;28;20297;-53
2021/09/12 08:30:55;;;;;;;;;;;35.40;61.40;;;;;;5074258;28;19928;-53
2021/09/12 08:33:59;;;;;;;;;;;35.00;61.20;;;;;;5071908;28;19923;-51
2021/09/12 08:37:03;;;;;;;;;;;35.70;60.70;;;;;;5078448;28;19928;-54
2021/09/12 08:40:08;;;;;;;;;;;37.00;59.00;;;;;;5072185;28;19923;-56
2021/09/12 08:42:52;;;;;;;;;;;38.90;57.40;;;;;;5069578;28;19924;-50
2021/09/12 08:45:56;;;;;;;;;;;39.60;56.20;;;;;;5059491;28;19923;-49
2021/09/12 08:49:00;;;;;;;;;;;40.20;54.50;;;;;;5071843;28;19920;-50
2021/09/12 08:52:04;;;;;;;;;;;40.80;53.90;;;;;;5086906;28;19923;-50
2021/09/12 08:55:08;;;;;;;;;;;40.80;52.60;;;;;;5092212;28;19935;-48
2021/09/12 08:58:12;;;;;;;;;;;38.00;54.30;;;;;;5079596;28;19923;-49
2021/09/12 09:01:16;;;;;;;;;;;40.90;52.90;;;;;;5087323;28;19923;-49
2021/09/12 09:04:20;;;;;;;;;;;42.10;50.70;;;;;;5092236;28;20302;-48
2021/09/12 09:07:27;;;;;;;;;;;42.00;49.80;;;;;;5092356;28;20401;-51
2021/09/12 09:10:38;;;;;;;;;;;42.90;48.60;;;;;;5092304;28;20077;-48
2021/09/12 09:13:42;;;;;;;;;;;43.50;47.80;;;;;;5091768;28;19923;-48
2021/09/12 09:16:51;;;;;;;;;;;43.80;45.60;;;;;;5091516;28;19938;-48
2021/09/12 09:19:55;;;;;;;;;;;44.10;46.80;;;;;;5091545;28;20409;-49
2021/09/12 09:23:03;;;;;;;;;;;42.30;46.30;;;;;;5091615;28;19919;-49
2021/09/12 09:26:20;;;;;;;;;;;39.90;46.90;;;;;;5090939;28;19935;-50
2021/09/12 09:29:31;;;;;;;;;;;41.60;47.10;;;;;;5090879;28;19998;-50
2021/09/12 09:32:36;;;;;;;;;;;41.70;46.10;;;;;;5090608;28;19923;-51
2021/09/12 09:35:48;;;;;;;;;;;41.20;46.40;;;;;;5090218;28;19927;-52
2021/09/12 09:38:55;;;;;;;;;;;40.00;46.90;;;;;;5090114;28;19923;-47
2021/09/12 09:41:59;;;;;;;;;;;41.20;46.60;;;;;;5090052;28;19923;-49
2021/09/12 09:45:03;;;;;;;;;;;44.30;46.20;;;;;;5090166;28;20297;-51
2021/09/12 09:48:12;;;;;;;;;;;44.10;45.40;;;;;;5090951;28;20397;-49
2021/09/12 09:51:17;;;;;;;;;;;42.90;44.20;;;;;;5090553;28;20158;-52
2021/09/12 09:54:22;;;;;;;;;;;43.70;45.20;;;;;;5090812;28;19923;-48
2021/09/12 09:57:26;;;;;;;;;;;42.10;44.70;;;;;;5078093;28;19923;-47
2021/09/12 10:00:30;;;;;;;;;;;43.50;44.30;;;;;;5090158;28;19919;-50
2021/09/12 10:03:34;;;;;;;;;;;45.70;44.10;;;;;;5090510;28;19915;-51
2021/09/12 10:06:39;;;;;;;;;;;46.90;43.40;;;;;;5089975;28;19919;-50
2021/09/12 10:09:43;;;;;;;;;;;45.80;42.30;;;;;;5076750;28;20405;-49
2021/09/12 10:12:52;;;;;;;;;;;45.50;43.20;;;;;;5089879;28;19918;-49
2021/09/12 10:15:57;;;;;;;;;;;45.40;43.50;;;;;;5090343;28;19927;-49
2021/09/12 10:19:01;;;;;;;;;;;46.80;42.40;;;;;;5089995;28;20509;-48
2021/09/12 10:22:10;;;;;;;;;;;45.20;41.20;;;;;;5090289;28;20089;-47
2021/09/12 10:25:15;;;;;;;;;;;38.50;43.80;;;;;;5090457;28;19935;-49
2021/09/12 10:28:31;;;;;;;;;;;39.10;45.30;;;;;;5090147;28;20393;-47
2021/09/12 10:31:35;;;;;;;;;;;42.60;44.60;;;;;;5090215;28;19919;-46
2021/09/12 10:34:59;;;;;;;;;;;44.00;44.00;;;;;;5090271;28;20251;-49
2021/09/12 10:38:04;;;;;;;;;;;39.50;44.90;;;;;;5090196;28;19923;-51
2021/09/12 10:41:12;;;;;;;;;;;40.70;45.70;;;;;;5076989;28;20437;-47
2021/09/12 10:44:16;;;;;;;;;;;38.70;44.90;;;;;;5090632;28;20579;-49
2021/09/12 10:47:21;;;;;;;;;;;36.70;46.90;;;;;;5089928;28;19920;-49
2021/09/12 10:50:37;;;;;;;;;;;37.20;47.10;;;;;;5090067;28;19966;-50
2021/09/12 10:53:44;;;;;;;;;;;39.90;46.00;;;;;;5090030;28;19924;-49
2021/09/12 10:57:02;;;;;;;;;;;37.80;46.80;;;;;;5090222;28;19935;-49
2021/09/12 11:00:07;;;;;;;;;;;40.10;45.30;;;;;;5089684;28;19919;-51
2021/09/12 11:03:15;;;;;;;;;;;40.40;44.80;;;;;;5089937;28;19919;-52
2021/09/12 11:06:20;;;;;;;;;;;40.20;45.50;;;;;;5090174;28;19924;-48
2021/09/12 11:09:24;;;;;;;;;;;38.70;45.30;;;;;;5090064;28;19923;-52
2021/09/12 11:12:28;;;;;;;;;;;38.30;47.00;;;;;;5089784;28;20407;-52
2021/09/12 11:15:32;;;;;;;;;;;40.80;44.80;;;;;;5090120;28;19923;-46
2021/09/12 11:18:46;;;;;;;;;;;42.40;43.80;;;;;;5090017;28;19923;-50
2021/09/12 11:21:51;;;;;;;;;;;45.10;43.10;;;;;;5089545;28;19935;-47
2021/09/12 11:25:02;;;;;;;;;;;45.20;42.60;;;;;;5089962;28;19919;-46
2021/09/12 11:28:07;;;;;;;;;;;46.50;41.80;;;;;;5090086;28;19944;-50
2021/09/12 11:31:11;;;;;;;;;;;47.10;41.50;;;;;;5089336;28;19919;-47
2021/09/12 11:34:15;;;;;;;;;;;48.20;41.40;;;;;;5089912;28;20302;-50
2021/09/12 11:37:22;;;;;;;;;;;49.10;40.70;;;;;;5089968;28;19923;-47
2021/09/12 11:40:26;;;;;;;;;;;50.00;40.20;;;;;;5090139;28;20436;-47
2021/09/12 11:43:30;;;;;;;;;;;50.10;39.60;;;;;;5093660;28;19923;-51
2021/09/12 11:46:34;;;;;;;;;;;50.50;39.20;;;;;;5093557;28;19918;-52
2021/09/12 11:49:39;;;;;;;;;;;50.60;39.50;;;;;;5093283;28;19919;-47
2021/09/12 11:52:42;;;;;;;;;;;48.30;39.20;;;;;;5093153;28;19920;-46
2021/09/12 11:55:47;;;;;;;;;;;48.60;40.30;;;;;;5093160;28;20480;-46
2021/09/12 11:58:51;;;;;;;;;;;49.40;40.00;;;;;;5093116;28;19926;-46
2021/09/12 12:01:56;;;;;;;;;;;45.90;39.50;;;;;;5092881;28;20306;-47
2021/09/12 12:05:00;;;;;;;;;;;45.20;41.10;;;;;;5093277;28;19919;-48
2021/09/12 12:08:05;;;;;;;;;;;45.70;41.20;;;;;;5093095;28;19919;-48
2021/09/12 12:11:09;;;;;;;;;;;43.80;40.70;;;;;;5092651;28;20401;-50
2021/09/12 12:14:22;;;;;;;;;;;41.20;41.50;;;;;;5092680;28;20389;-49
2021/09/12 12:17:26;;;;;;;;;;;39.20;43.80;;;;;;5092900;28;19919;-50
2021/09/12 12:20:32;;;;;;;;;;;40.10;44.10;;;;;;5092257;28;19919;-52
2021/09/12 12:23:36;;;;;;;;;;;42.70;42.90;;;;;;5092695;28;19926;-48
2021/09/12 12:26:41;;;;;;;;;;;43.90;42.00;;;;;;5092896;28;19919;-50
2021/09/12 12:29:56;;;;;;;;;;;45.30;41.20;;;;;;5092459;28;19920;-50
2021/09/12 12:33:01;;;;;;;;;;;45.80;40.40;;;;;;5092340;28;20293;-50
2021/09/12 12:36:09;;;;;;;;;;;45.80;40.50;;;;;;5092444;28;20404;-48
2021/09/12 12:39:14;;;;;;;;;;;46.50;40.10;;;;;;5092495;28;20217;-46
2021/09/12 12:42:18;;;;;;;;;;;47.60;39.60;;;;;;5091696;28;19938;-50
2021/09/12 12:45:26;;;;;;;;;;;46.90;39.50;;;;;;5092255;28;19919;-48
2021/09/12 12:48:31;;;;;;;;;;;46.80;39.80;;;;;;5092018;28;19919;-47
2021/09/12 12:51:35;;;;;;;;;;;45.80;39.80;;;;;;5091451;28;19935;-47
2021/09/12 12:54:40;;;;;;;;;;;46.50;39.40;;;;;;5091851;28;19947;-47
2021/09/12 12:57:46;;;;;;;;;;;46.40;39.90;;;;;;5092137;28;20400;-47
2021/09/12 13:00:52;;;;;;;;;;;47.10;39.60;;;;;;5091163;28;19935;-48
2021/09/12 13:03:56;;;;;;;;;;;47.10;39.50;;;;;;5091851;28;20405;-47
2021/09/12 13:07:00;;;;;;;;;;;45.50;38.90;;;;;;5091736;28;19935;-48
2021/09/12 13:10:05;;;;;;;;;;;46.00;39.70;;;;;;5091725;28;20395;-47
2021/09/12 13:13:09;;;;;;;;;;;45.60;39.40;;;;;;5091033;28;19923;-47
2021/09/12 13:16:15;;;;;;;;;;;45.50;39.90;;;;;;5091618;28;19935;-48
2021/09/12 13:19:19;;;;;;;;;;;45.20;39.50;;;;;;5078928;28;20394;-47
2021/09/12 13:22:23;;;;;;;;;;;44.40;39.40;;;;;;5091140;28;20177;-49
2021/09/12 13:25:27;;;;;;;;;;;39.20;41.50;;;;;;5091515;28;19927;-47
2021/09/12 13:28:31;;;;;;;;;;;39.90;41.90;;;;;;5091315;28;19923;-48
2021/09/12 13:31:35;;;;;;;;;;;40.00;41.50;;;;;;5090932;28;20452;-47
2021/09/12 13:34:39;;;;;;;;;;;39.30;42.40;;;;;;5078820;28;19927;-47
2021/09/12 13:37:45;;;;;;;;;;;41.40;41.10;;;;;;5091186;28;19931;-46
2021/09/12 13:40:48;;;;;;;;;;;41.00;40.80;;;;;;5090816;28;20405;-48
2021/09/12 13:43:52;;;;;;;;;;;42.00;40.80;;;;;;5091678;28;19923;-48
2021/09/12 13:46:56;;;;;;;;;;;42.80;39.90;;;;;;5091340;28;19935;-49
2021/09/12 13:50:01;;;;;;;;;;;42.20;40.10;;;;;;5091229;28;19924;-50
2021/09/12 13:53:05;;;;;;;;;;;41.60;39.80;;;;;;5090810;28;19923;-46
2021/09/12 13:56:09;;;;;;;;;;;41.60;40.50;;;;;;5091080;28;19923;-47
2021/09/12 13:59:13;;;;;;;;;;;42.70;39.90;;;;;;5091025;28;19923;-47
2021/09/12 14:02:17;;;;;;;;;;;42.70;39.70;;;;;;5090337;28;19915;-47
2021/09/12 14:05:21;;;;;;;;;;;41.70;39.90;;;;;;5090549;28;19919;-46
2021/09/12 14:08:25;;;;;;;;;;;42.00;39.80;;;;;;5078372;28;19919;-49
2021/09/12 14:11:30;;;;;;;;;;;42.00;40.10;;;;;;5089959;28;19926;-49
2021/09/12 14:14:34;;;;;;;;;;;41.20;40.20;;;;;;5090450;28;20420;-46
2021/09/12 14:17:38;;;;;;;;;;;41.60;39.70;;;;;;5090484;28;19923;-49
2021/09/12 14:20:42;;;;;;;;;;;38.80;40.40;;;;;;5090243;28;19919;-48
2021/09/12 14:23:46;;;;;;;;;;;37.40;42.70;;;;;;5090514;28;19919;-49
2021/09/12 14:26:50;;;;;;;;;;;37.70;41.90;;;;;;5090383;28;19923;-50
2021/09/12 14:29:54;;;;;;;;;;;37.40;42.60;;;;;;5090552;28;19919;-48
2021/09/12 14:32:58;;;;;;;;;;;37.40;43.10;;;;;;5089772;28;20567;-48
2021/09/12 14:36:02;;;;;;;;;;;36.60;42.90;;;;;;5090147;28;20401;-48
2021/09/12 14:39:06;;;;;;;;;;;36.40;43.20;;;;;;5090315;28;19919;-49
2021/09/12 14:42:13;;;;;;;;;;;36.60;43.70;;;;;;5089453;28;20029;-47
2021/09/12 14:45:17;;;;;;;;;;;36.30;43.30;;;;;;5064502;22;19932;-51
2021/09/12 14:48:21;;;;;;;;;;;35.90;43.90;;;;;;5022146;28;19921;-52
2021/09/12 14:51:25;;;;;;;;;;;35.70;44.00;;;;;;5011399;28;19921;-52
2021/09/12 14:54:29;;;;;;;;;;;35.50;44.00;;;;;;5029524;28;20382;-53
2021/09/12 14:57:34;;;;;;;;;;;35.30;44.00;;;;;;5029955;28;19936;-51
2021/09/12 15:00:38;;;;;;;;;;;34.80;44.30;;;;;;5029061;28;19920;-52
2021/09/12 15:03:42;;;;;;;;;;;34.00;45.30;;;;;;5029419;28;19920;-51
2021/09/12 15:06:45;;;;;;;;;;;34.50;45.40;;;;;;5010525;28;20308;-51
2021/09/12 15:09:49;;;;;;;;;;;34.60;45.30;;;;;;5010107;28;19920;-55
2021/09/12 15:12:53;;;;;;;;;;;34.50;45.30;;;;;;5009513;28;19924;-56
2021/09/12 15:16:00;;;;;;;;;;;34.20;45.50;;;;;;5011448;28;19928;-54
2021/09/12 15:19:04;;;;;;;;;;;34.10;45.90;;;;;;5013893;28;19940;-54
2021/09/12 15:22:08;;;;;;;;;;;34.10;45.50;;;;;;5021028;28;20327;-56
2021/09/12 15:25:12;;;;;;;;;;;34.00;45.70;;;;;;5033322;28;19920;-58
2021/09/12 15:28:16;;;;;;;;;;;33.90;46.20;;;;;;5033563;28;19920;-58
2021/09/12 15:31:20;;;;;;;;;;;33.60;46.30;;;;;;5033121;28;19920;-53
2021/09/12 15:34:24;;;;;;;;;;;33.40;46.50;;;;;;5033018;28;20292;-54
2021/09/12 15:37:28;;;;;;;;;;;33.20;46.90;;;;;;5033656;28;19920;-54
2021/09/12 15:40:32;;;;;;;;;;;32.80;47.10;;;;;;5033205;28;19920;-53
2021/09/12 15:43:35;;;;;;;;;;;32.50;47.70;;;;;;5032798;28;19920;-53
2021/09/12 15:46:39;;;;;;;;;;;32.30;48.00;;;;;;5033238;28;19928;-52
2021/09/12 15:49:43;;;;;;;;;;;32.30;48.20;;;;;;5033143;28;19920;-53
2021/09/12 15:52:48;;;;;;;;;;;32.10;48.40;;;;;;5032620;28;19921;-55
2021/09/12 15:55:51;;;;;;;;;;;32.00;48.70;;;;;;5032896;28;20319;-53
2021/09/12 15:58:56;;;;;;;;;;;31.80;49.00;;;;;;5033190;28;20406;-51
2021/09/12 16:02:00;;;;;;;;;;;31.70;49.40;;;;;;5032707;28;19921;-53
2021/09/12 16:05:04;;;;;;;;;;;31.60;49.30;;;;;;5032580;28;19924;-54
2021/09/12 16:08:08;;;;;;;;;;;31.50;49.40;;;;;;5020914;28;20401;-53
2021/09/12 16:11:12;;;;;;;;;;;31.40;49.70;;;;;;5032897;28;19922;-54
2021/09/12 16:14:17;;;;;;;;;;;31.20;50.00;;;;;;5032829;28;19924;-53
2021/09/12 16:17:21;;;;;;;;;;;31.20;50.40;;;;;;5033013;28;19924;-53
2021/09/12 16:20:26;;;;;;;;;;;31.10;50.60;;;;;;5033045;28;19936;-53
2021/09/12 16:23:31;;;;;;;;;;;30.90;50.60;;;;;;5032592;28;19924;-53
2021/09/12 16:26:36;;;;;;;;;;;30.70;50.70;;;;;;5020133;28;19920;-54
2021/09/12 16:29:40;;;;;;;;;;;30.60;51.10;;;;;;5020819;28;19936;-53
2021/09/12 16:32:44;;;;;;;;;;;30.50;51.10;;;;;;5032876;28;19921;-55
2021/09/12 16:35:48;;;;;;;;;;;30.50;51.20;;;;;;5032557;28;19924;-53
2021/09/12 16:38:52;;;;;;;;;;;30.30;51.40;;;;;;5032809;28;19924;-53
2021/09/12 16:41:56;;;;;;;;;;;30.20;51.60;;;;;;5032425;28;19920;-53
2021/09/12 16:45:04;;;;;;;;;;;30.10;51.90;;;;;;5032097;28;19928;-53
2021/09/12 16:48:08;;;;;;;;;;;29.80;52.20;;;;;;5020318;28;19994;-52
2021/09/12 16:51:11;;;;;;;;;;;29.70;52.30;;;;;;5032180;28;19925;-53
2021/09/12 16:54:15;;;;;;;;;;;29.50;52.40;;;;;;5032102;28;20219;-52
2021/09/12 16:57:21;;;;;;;;;;;29.40;52.60;;;;;;5020509;28;19932;-53
2021/09/12 17:00:26;;;;;;;;;;;29.30;53.10;;;;;;5031650;28;20418;-55
2021/09/12 17:03:30;;;;;;;;;;;29.10;53.10;;;;;;5032130;28;19921;-52
2021/09/12 17:06:33;;;;;;;;;;;28.90;53.50;;;;;;5031804;28;19924;-52
2021/09/12 17:09:37;;;;;;;;;;;28.80;53.70;;;;;;5032153;28;20394;-53
2021/09/12 17:12:43;;;;;;;;;;;28.60;53.90;;;;;;5031654;28;19932;-52
2021/09/12 17:15:47;;;;;;;;;;;28.40;54.30;;;;;;5031729;28;19924;-52
2021/09/12 17:18:51;;;;;;;;;;;28.30;54.60;;;;;;5031796;28;20315;-55
2021/09/12 17:21:58;;;;;;;;;;;28.10;54.80;;;;;;5031687;28;19920;-51
2021/09/12 17:25:02;;;;;;;;;;;27.90;55.20;;;;;;5031535;28;19943;-57
2021/09/12 17:28:05;;;;;;;;;;;27.60;55.50;;;;;;5031555;28;19921;-54
2021/09/12 17:31:09;;;;;;;;;;;27.40;55.80;;;;;;5031084;28;19924;-52
2021/09/12 17:34:14;;;;;;;;;;;27.30;56.00;;;;;;5030970;28;19920;-55
2021/09/12 17:37:18;;;;;;;;;;;27.10;56.20;;;;;;5031043;28;19928;-53
2021/09/12 17:40:23;;;;;;;;;;;27.00;56.60;;;;;;5031046;28;19924;-52
2021/09/12 17:43:27;;;;;;;;;;;26.90;56.50;;;;;;5030699;28;19920;-54
2021/09/12 17:46:31;;;;;;;;;;;26.80;56.50;;;;;;5030754;28;19928;-52
2021/09/12 17:49:35;;;;;;;;;;;26.70;56.70;;;;;;5030857;28;19920;-52
2021/09/12 17:52:39;;;;;;;;;;;26.70;56.70;;;;;;5030570;28;19940;-53